createdAt,value
2022-12-31T00:01:11.285Z,96845.81
2022-12-31T00:03:40.635Z,96843.56
2022-12-31T00:06:21.737Z,96846.28
2022-12-31T00:08:51.687Z,96849.81
2022-12-31T00:11:20.735Z,96847.88
2022-12-31T00:13:50.100Z,96848.13
2022-12-31T00:16:23.399Z,96846.88
2022-12-31T00:18:55.942Z,96838.81
2022-12-31T00:21:24.578Z,96845.03
2022-12-31T00:23:53.958Z,96848.94
2022-12-31T00:26:25.865Z,96845.78
2022-12-31T00:28:55.796Z,96846.47
2022-12-31T00:31:28.722Z,96864.75
2022-12-31T00:33:57.743Z,96859.63
2022-12-31T00:36:29.708Z,96863.16
2022-12-31T00:39:00.656Z,96854.13
2022-12-31T00:41:30.456Z,96857.22
2022-12-31T00:43:59.259Z,96856.22
2022-12-31T00:46:29.129Z,96852.88
2022-12-31T00:48:57.810Z,96849.44
2022-12-31T00:51:27.571Z,96851.91
2022-12-31T00:53:57.351Z,96851.75
2022-12-31T00:56:28.750Z,96851.59
2022-12-31T00:58:57.894Z,96855.25
2022-12-31T01:01:31.517Z,96858.53
2022-12-31T01:04:03.662Z,96865.69
2022-12-31T01:06:32.595Z,96863.59
2022-12-31T01:09:00.899Z,96871.72
2022-12-31T01:11:30.080Z,96880.31
2022-12-31T01:14:00.428Z,96886.06
2022-12-31T01:16:33.549Z,96887.81
2022-12-31T01:19:05.537Z,96892.50
2022-12-31T01:21:35.557Z,96894.63
2022-12-31T01:24:04.535Z,96902.91
2022-12-31T01:26:33.154Z,96899.63
2022-12-31T01:29:02.104Z,96901.16
2022-12-31T01:31:33.892Z,96904.72
2022-12-31T01:34:02.820Z,96905.69
2022-12-31T01:36:34.093Z,96916.66
2022-12-31T01:39:06.496Z,96924.00
2022-12-31T01:41:39.252Z,96919.81
2022-12-31T01:44:51.806Z,96925.72
2022-12-31T01:47:34.544Z,96919.25
2022-12-31T01:50:11.594Z,96913.50
2022-12-31T01:52:46.184Z,96911.94
2022-12-31T01:55:22.365Z,96898.16
2022-12-31T01:57:56.251Z,96896.84
2022-12-31T02:00:24.883Z,96898.97
2022-12-31T02:02:55.114Z,96907.91
2022-12-31T02:05:30.233Z,96914.81
2022-12-31T02:07:59.987Z,96916.06
2022-12-31T02:10:28.291Z,96919.41
2022-12-31T02:12:57.278Z,96930.22
2022-12-31T02:15:34.108Z,96929.56
2022-12-31T02:18:13.871Z,96927.50
2022-12-31T02:21:17.868Z,96936.13
2022-12-31T02:24:21.033Z,96937.41
2022-12-31T02:27:03.003Z,96940.28
2022-12-31T02:30:22.543Z,96942.56
2022-12-31T02:33:09.403Z,96939.97
2022-12-31T02:35:49.679Z,96938.72
2022-12-31T02:38:26.334Z,96932.50
2022-12-31T02:40:55.461Z,96946.13
2022-12-31T02:43:24.449Z,96955.13
2022-12-31T02:46:06.679Z,96951.78
2022-12-31T02:48:48.043Z,96949.06
2022-12-31T02:51:36.182Z,96945.84
2022-12-31T02:54:27.320Z,96944.28
2022-12-31T02:57:14.634Z,96935.16
2022-12-31T03:00:11.869Z,96930.03
2022-12-31T03:02:46.743Z,96938.06
2022-12-31T03:05:18.661Z,96942.00
2022-12-31T03:07:47.315Z,96943.28
2022-12-31T03:10:16.306Z,96955.84
2022-12-31T03:12:47.680Z,96951.34
2022-12-31T03:15:22.517Z,96955.38
2022-12-31T03:17:56.389Z,96957.94
2022-12-31T03:20:48.169Z,96963.25
2022-12-31T03:23:21.532Z,96975.44
2022-12-31T03:25:49.321Z,96968.53
2022-12-31T03:28:20.711Z,96966.56
2022-12-31T03:30:53.018Z,96966.56
2022-12-31T03:33:23.774Z,96968.19
2022-12-31T03:35:54.100Z,96968.34
2022-12-31T03:38:23.017Z,96968.50
2022-12-31T03:40:55.156Z,96965.44
2022-12-31T03:43:23.968Z,96967.38
2022-12-31T03:45:54.160Z,96957.41
2022-12-31T03:48:24.584Z,96973.00
2022-12-31T03:50:53.259Z,96972.69
2022-12-31T03:53:21.876Z,96977.19
2022-12-31T03:55:53.107Z,96973.47
2022-12-31T03:58:21.506Z,96980.94
2022-12-31T04:00:50.444Z,96978.59
2022-12-31T04:03:18.815Z,96971.84
2022-12-31T04:05:54.608Z,96976.19
2022-12-31T04:08:23.242Z,96972.75
2022-12-31T04:10:51.698Z,96973.63
2022-12-31T04:13:20.361Z,96964.97
2022-12-31T04:15:52.291Z,96976.81
2022-12-31T04:18:20.935Z,96973.31
2022-12-31T04:20:50.601Z,96986.31
2022-12-31T04:23:19.293Z,96976.03
2022-12-31T04:25:47.899Z,96978.91
2022-12-31T04:28:16.189Z,96976.50
2022-12-31T04:30:44.939Z,96989.53
2022-12-31T04:33:13.778Z,96992.78
2022-12-31T04:35:42.160Z,96988.25
2022-12-31T04:38:12.090Z,96993.56
2022-12-31T04:41:00.784Z,97002.16
2022-12-31T04:43:29.396Z,97000.22
2022-12-31T04:45:58.103Z,97007.31
2022-12-31T04:48:26.844Z,97009.41
2022-12-31T04:50:55.070Z,97019.94
2022-12-31T04:53:24.959Z,97022.00
2022-12-31T04:55:53.357Z,97016.03
2022-12-31T04:58:22.365Z,97004.34
2022-12-31T05:00:54.643Z,97011.50
2022-12-31T05:03:25.603Z,97000.59
2022-12-31T05:05:54.941Z,96995.94
2022-12-31T05:08:24.564Z,97003.78
2022-12-31T05:10:53.150Z,97004.47
2022-12-31T05:13:21.760Z,97022.91
2022-12-31T05:15:50.134Z,97017.94
2022-12-31T05:18:19.238Z,97018.38
2022-12-31T05:20:47.925Z,97020.00
2022-12-31T05:23:17.768Z,97030.91
2022-12-31T05:25:49.357Z,97037.72
2022-12-31T05:28:18.770Z,97044.75
2022-12-31T05:30:50.929Z,97040.31
2022-12-31T05:33:19.982Z,97040.81
2022-12-31T05:35:48.515Z,97042.41
2022-12-31T05:38:17.120Z,97025.38
2022-12-31T05:40:47.141Z,97033.09
2022-12-31T05:43:15.907Z,97043.22
2022-12-31T05:45:44.540Z,97035.84
2022-12-31T05:48:13.124Z,97035.34
2022-12-31T05:50:41.699Z,97044.84
2022-12-31T05:53:09.943Z,97040.22
2022-12-31T05:55:38.202Z,97036.81
2022-12-31T05:58:07.897Z,97048.56
2022-12-31T06:00:36.141Z,97058.38
2022-12-31T06:03:05.655Z,97062.19
2022-12-31T06:05:34.412Z,97068.16
2022-12-31T06:08:02.995Z,97061.56
2022-12-31T06:10:31.313Z,97072.34
2022-12-31T06:12:59.930Z,97073.00
2022-12-31T06:15:29.664Z,97068.16
2022-12-31T06:17:58.805Z,97062.06
2022-12-31T06:20:27.859Z,97071.38
2022-12-31T06:22:56.093Z,97065.44
2022-12-31T06:25:24.408Z,97070.59
2022-12-31T06:27:52.678Z,97083.56
2022-12-31T06:30:20.917Z,97086.00
2022-12-31T06:32:50.598Z,97078.91
2022-12-31T06:35:19.738Z,97074.75
2022-12-31T06:37:48.355Z,97073.72
2022-12-31T06:40:17.179Z,97075.78
2022-12-31T06:42:45.866Z,97074.41
2022-12-31T06:45:14.149Z,97070.00
2022-12-31T06:47:42.883Z,97070.88
2022-12-31T06:50:12.919Z,97071.28
2022-12-31T06:52:41.555Z,97068.84
2022-12-31T06:55:12.085Z,97080.56
2022-12-31T06:57:41.242Z,97077.97
2022-12-31T07:00:12.210Z,97082.88
2022-12-31T07:03:08.820Z,97086.03
2022-12-31T07:05:47.788Z,97089.47
2022-12-31T07:08:35.895Z,97085.38
2022-12-31T07:11:13.907Z,97101.16
2022-12-31T07:13:58.177Z,97103.16
2022-12-31T07:16:47.088Z,97112.25
2022-12-31T07:19:31.073Z,97105.88
2022-12-31T07:22:01.612Z,97112.31
2022-12-31T07:24:30.682Z,97112.06
2022-12-31T07:27:20.491Z,97110.28
2022-12-31T07:30:07.704Z,97108.41
2022-12-31T07:33:23.528Z,97119.22
2022-12-31T07:36:11.359Z,97121.94
2022-12-31T07:38:52.752Z,97121.81
2022-12-31T07:41:41.264Z,97118.81
2022-12-31T07:44:38.920Z,97127.69
2022-12-31T07:47:21.788Z,97126.47
2022-12-31T07:49:51.272Z,97135.94
2022-12-31T07:52:20.970Z,97130.69
2022-12-31T07:54:50.991Z,97131.50
2022-12-31T07:57:22.594Z,97136.34
2022-12-31T08:00:06.565Z,97150.22
2022-12-31T08:03:06.067Z,97154.66
2022-12-31T08:05:49.692Z,97150.91
2022-12-31T08:08:37.138Z,97167.06
2022-12-31T08:11:20.763Z,97170.78
2022-12-31T08:13:50.333Z,97167.84
2022-12-31T08:16:19.677Z,97169.41
2022-12-31T08:18:48.746Z,97177.47
2022-12-31T08:21:34.974Z,97176.31
2022-12-31T08:24:19.901Z,97176.22
2022-12-31T08:27:05.906Z,97169.66
2022-12-31T08:29:43.018Z,97163.59
2022-12-31T08:32:21.943Z,97159.50
2022-12-31T08:35:04.209Z,97169.06
2022-12-31T08:37:40.935Z,97173.50
2022-12-31T08:40:23.733Z,97171.66
2022-12-31T08:43:25.886Z,97171.38
2022-12-31T08:45:56.846Z,97182.19
2022-12-31T08:48:34.723Z,97187.03
2022-12-31T08:51:03.593Z,97188.28
2022-12-31T08:53:32.760Z,97197.34
2022-12-31T08:56:23.646Z,97197.38
2022-12-31T08:59:05.035Z,97198.47
2022-12-31T09:01:51.465Z,97201.06
2022-12-31T09:04:32.181Z,97198.19
2022-12-31T09:07:04.896Z,97205.13
2022-12-31T09:09:44.580Z,97206.25
2022-12-31T09:12:26.092Z,97207.34
2022-12-31T09:15:04.882Z,97200.78
2022-12-31T09:17:47.307Z,97204.16
2022-12-31T09:20:26.118Z,97207.69
2022-12-31T09:22:57.064Z,97207.22
2022-12-31T09:25:27.698Z,97208.63
2022-12-31T09:28:15.461Z,97217.59
2022-12-31T09:30:55.808Z,97212.44
2022-12-31T09:33:44.450Z,97211.47
2022-12-31T09:36:20.375Z,97206.84
2022-12-31T09:39:01.867Z,97211.00
2022-12-31T09:42:36.394Z,97207.97
2022-12-31T09:45:46.444Z,97216.66
2022-12-31T09:49:10.639Z,97217.03
2022-12-31T09:51:53.380Z,97210.22
2022-12-31T09:54:51.314Z,97214.88
2022-12-31T09:57:40.789Z,97220.94
2022-12-31T10:00:21.371Z,97225.09
2022-12-31T10:03:17.717Z,97229.91
2022-12-31T10:06:13.385Z,97241.34
2022-12-31T10:09:22.303Z,97231.31
2022-12-31T10:12:19.655Z,97229.06
2022-12-31T10:15:01.402Z,97231.50
2022-12-31T10:17:52.129Z,97228.91
2022-12-31T10:20:52.046Z,97229.22
2022-12-31T10:23:57.796Z,97240.09
2022-12-31T10:26:54.271Z,97230.66
2022-12-31T10:29:40.947Z,97225.19
2022-12-31T10:32:21.359Z,97225.25
2022-12-31T10:35:02.516Z,97222.88
2022-12-31T10:37:42.361Z,97219.34
2022-12-31T10:40:31.146Z,97211.56
2022-12-31T10:43:55.192Z,97215.47
2022-12-31T10:47:06.829Z,97217.47
2022-12-31T10:50:15.377Z,97228.53
2022-12-31T10:53:37.458Z,97228.88
2022-12-31T10:57:08.028Z,97220.00
2022-12-31T11:00:03.688Z,97215.16
2022-12-31T11:03:21.078Z,97211.94
2022-12-31T11:06:45.533Z,97207.50
2022-12-31T11:10:04.345Z,97210.97
2022-12-31T11:13:09.000Z,97204.94
2022-12-31T11:16:07.589Z,97211.22
2022-12-31T11:18:49.177Z,97205.75
2022-12-31T11:21:36.296Z,97199.00
2022-12-31T11:24:25.387Z,97196.59
2022-12-31T11:27:16.456Z,97196.38
2022-12-31T11:30:05.452Z,97188.44
2022-12-31T11:32:50.826Z,97188.50
2022-12-31T11:35:39.161Z,97183.50
2022-12-31T11:38:25.437Z,97187.50
2022-12-31T11:41:03.709Z,97185.16
2022-12-31T11:43:39.854Z,97181.94
2022-12-31T11:46:35.112Z,97174.88
2022-12-31T11:49:18.361Z,97171.78
2022-12-31T11:52:16.069Z,97174.19
2022-12-31T11:55:19.965Z,97169.88
2022-12-31T11:57:52.244Z,97160.91
2022-12-31T12:00:24.370Z,97174.75
2022-12-31T12:03:00.518Z,97170.63
2022-12-31T12:05:29.802Z,97170.72
2022-12-31T12:07:58.323Z,97166.34
2022-12-31T12:10:36.009Z,97159.09
2022-12-31T12:13:16.105Z,97158.06
2022-12-31T12:15:50.049Z,97154.22
2022-12-31T12:18:41.043Z,97161.44
2022-12-31T12:21:13.725Z,97162.38
2022-12-31T12:23:43.450Z,97158.09
2022-12-31T12:26:29.365Z,97154.72
2022-12-31T12:29:09.103Z,97158.31
2022-12-31T12:31:38.264Z,97139.53
2022-12-31T12:34:24.297Z,97146.06
2022-12-31T12:36:52.956Z,97136.25
2022-12-31T12:39:25.064Z,97128.13
2022-12-31T12:42:09.438Z,97121.94
2022-12-31T12:44:38.081Z,97121.28
2022-12-31T12:47:12.668Z,97128.25
2022-12-31T12:49:47.534Z,97131.59
2022-12-31T12:52:42.008Z,97134.50
2022-12-31T12:55:24.540Z,97137.88
2022-12-31T12:58:05.223Z,97133.88
2022-12-31T13:00:39.261Z,97130.47
2022-12-31T13:04:07.410Z,97130.84
2022-12-31T13:06:53.193Z,97133.81
2022-12-31T13:09:43.985Z,97138.03
2022-12-31T13:12:25.080Z,97139.63
2022-12-31T13:15:03.505Z,97139.78
2022-12-31T13:18:01.274Z,97134.97
2022-12-31T13:20:39.140Z,97137.06
2022-12-31T13:23:23.071Z,97136.41
2022-12-31T13:26:07.536Z,97129.38
2022-12-31T13:28:40.419Z,97124.69
2022-12-31T13:31:17.730Z,97124.16
2022-12-31T13:33:53.486Z,97110.53
2022-12-31T13:36:26.606Z,97109.75
2022-12-31T13:38:58.995Z,97115.91
2022-12-31T13:41:35.415Z,97118.88
2022-12-31T13:44:14.201Z,97117.19
2022-12-31T13:46:51.896Z,97114.41
2022-12-31T13:49:28.175Z,97114.69
2022-12-31T13:52:06.781Z,97121.09
2022-12-31T13:54:47.290Z,97123.22
2022-12-31T13:57:31.171Z,97122.81
2022-12-31T14:00:04.826Z,97118.41
2022-12-31T14:02:48.857Z,97112.94
2022-12-31T14:05:24.347Z,97123.59
2022-12-31T14:07:57.565Z,97113.69
2022-12-31T14:10:45.623Z,97122.06
2022-12-31T14:13:42.900Z,97119.41
2022-12-31T14:16:24.006Z,97126.88
2022-12-31T14:19:06.240Z,97130.72
2022-12-31T14:21:44.702Z,97133.97
2022-12-31T14:24:21.347Z,97129.59
2022-12-31T14:26:57.858Z,97134.13
2022-12-31T14:29:35.021Z,97124.00
2022-12-31T14:32:46.688Z,97123.59
2022-12-31T14:35:36.060Z,97119.63
2022-12-31T14:38:15.621Z,97123.16
2022-12-31T14:41:01.013Z,97127.03
2022-12-31T14:43:45.183Z,97137.13
2022-12-31T14:46:25.468Z,97138.44
2022-12-31T14:49:08.842Z,97139.28
2022-12-31T14:51:38.977Z,97144.41
2022-12-31T14:54:28.559Z,97152.66
2022-12-31T14:56:57.528Z,97154.91
2022-12-31T14:59:33.345Z,97154.72
2022-12-31T15:02:20.960Z,97145.22
2022-12-31T15:04:49.733Z,97157.59
2022-12-31T15:07:31.384Z,97156.78
2022-12-31T15:10:12.372Z,97154.19
2022-12-31T15:12:52.581Z,97159.97
2022-12-31T15:15:43.856Z,97151.59
2022-12-31T15:18:37.016Z,97150.97
2022-12-31T15:21:34.354Z,97150.78
2022-12-31T15:24:03.454Z,97154.00
2022-12-31T15:26:34.721Z,97154.97
2022-12-31T15:29:06.212Z,97152.88
2022-12-31T15:31:37.700Z,97151.00
2022-12-31T15:34:22.151Z,97146.47
2022-12-31T15:36:54.866Z,97142.72
2022-12-31T15:39:37.765Z,97143.63
2022-12-31T15:42:38.651Z,97142.66
2022-12-31T15:45:18.318Z,97154.97
2022-12-31T15:47:57.087Z,97145.19
2022-12-31T15:50:26.989Z,97145.69
2022-12-31T15:52:58.375Z,97149.91
2022-12-31T15:55:34.918Z,97148.53
2022-12-31T15:58:08.262Z,97138.25
2022-12-31T16:00:53.097Z,97152.84
2022-12-31T16:03:28.171Z,97144.94
2022-12-31T16:06:01.301Z,97154.34
2022-12-31T16:08:32.947Z,97152.22
2022-12-31T16:11:04.288Z,97152.28
2022-12-31T16:13:37.631Z,97144.84
2022-12-31T16:16:09.322Z,97150.41
2022-12-31T16:18:40.687Z,97151.38
2022-12-31T16:21:25.557Z,97161.66
2022-12-31T16:23:55.617Z,97163.25
2022-12-31T16:26:26.421Z,97161.38
2022-12-31T16:28:59.903Z,97167.53
2022-12-31T16:31:30.801Z,97162.56
2022-12-31T16:34:15.907Z,97157.56
2022-12-31T16:36:55.134Z,97161.88
2022-12-31T16:39:31.716Z,97158.16
2022-12-31T16:42:19.835Z,97161.38
2022-12-31T16:44:48.930Z,97155.81
2022-12-31T16:47:21.441Z,97161.03
2022-12-31T16:50:00.023Z,97157.16
2022-12-31T16:52:34.634Z,97154.13
2022-12-31T16:55:08.201Z,97152.97
2022-12-31T16:57:37.232Z,97153.22
2022-12-31T17:00:08.163Z,97151.50
2022-12-31T17:02:40.216Z,97147.31
2022-12-31T17:05:20.349Z,97157.16
2022-12-31T17:07:49.443Z,97152.75
2022-12-31T17:10:23.563Z,97160.63
2022-12-31T17:15:46.178Z,97161.59
2022-12-31T17:18:20.217Z,97159.41
2022-12-31T17:20:52.078Z,97172.56
2022-12-31T17:23:27.763Z,97163.97
2022-12-31T17:26:01.646Z,97169.25
2022-12-31T17:28:42.909Z,97172.94
2022-12-31T17:31:37.344Z,97183.09
2022-12-31T17:34:19.077Z,97174.94
2022-12-31T17:36:58.640Z,97176.25
2022-12-31T17:39:29.091Z,97170.09
2022-12-31T17:41:59.593Z,97181.50
2022-12-31T17:44:29.674Z,97180.50
2022-12-31T17:46:58.638Z,97183.34
2022-12-31T17:49:31.167Z,97186.34
2022-12-31T17:52:00.765Z,97186.97
2022-12-31T17:54:29.383Z,97181.22
2022-12-31T17:56:58.869Z,97178.88
2022-12-31T17:59:30.521Z,97185.53
2022-12-31T18:02:02.521Z,97195.41
2022-12-31T18:04:31.230Z,97191.78
2022-12-31T18:07:01.177Z,97188.63
2022-12-31T18:09:29.771Z,97197.91
2022-12-31T18:12:01.460Z,97192.16
2022-12-31T18:14:30.417Z,97196.63
2022-12-31T18:16:59.014Z,97199.66
2022-12-31T18:20:02.939Z,97199.34
2022-12-31T18:22:18.459Z,97200.88
2022-12-31T18:24:47.093Z,97204.03
2022-12-31T18:27:18.454Z,97200.97
2022-12-31T18:29:47.794Z,97205.63
2022-12-31T18:32:23.874Z,97207.13
2022-12-31T18:34:53.050Z,97210.16
2022-12-31T18:37:23.364Z,97205.94
2022-12-31T18:39:51.952Z,97201.69
2022-12-31T18:42:24.201Z,97216.22
2022-12-31T18:44:53.163Z,97207.53
2022-12-31T18:47:23.203Z,97212.19
2022-12-31T18:49:52.087Z,97219.25
2022-12-31T18:52:25.109Z,97215.00
2022-12-31T18:54:53.693Z,97222.16
2022-12-31T18:57:22.257Z,97220.13
2022-12-31T18:59:50.463Z,97226.50
2022-12-31T19:02:21.176Z,97237.59
2022-12-31T19:04:49.792Z,97238.19
2022-12-31T19:07:18.403Z,97242.47
2022-12-31T19:09:51.395Z,97241.94
2022-12-31T19:12:23.083Z,97250.31
2022-12-31T19:14:51.300Z,97245.88
2022-12-31T19:17:21.555Z,97252.19
2022-12-31T19:19:49.803Z,97254.81
2022-12-31T19:22:18.434Z,97256.31
2022-12-31T19:24:48.423Z,97258.53
2022-12-31T19:27:17.071Z,97252.16
2022-12-31T19:29:46.034Z,97255.47
2022-12-31T19:32:14.850Z,97258.72
2022-12-31T19:34:43.739Z,97265.47
2022-12-31T19:37:16.351Z,97263.63
2022-12-31T19:39:44.763Z,97272.47
2022-12-31T19:42:17.174Z,97270.66
2022-12-31T19:44:45.830Z,97267.50
2022-12-31T19:47:14.552Z,97272.44
2022-12-31T19:49:43.164Z,97274.34
2022-12-31T19:52:12.369Z,97270.81
2022-12-31T19:54:41.057Z,97276.19
2022-12-31T19:57:09.738Z,97274.50
2022-12-31T19:59:39.681Z,97277.72
2022-12-31T20:02:08.511Z,97275.88
2022-12-31T20:04:37.204Z,97275.16
2022-12-31T20:07:06.363Z,97279.56
2022-12-31T20:09:34.961Z,97284.31
2022-12-31T20:12:03.575Z,97279.94
2022-12-31T20:14:32.167Z,97273.50
2022-12-31T20:17:01.880Z,97273.72
2022-12-31T20:19:30.452Z,97279.28
2022-12-31T20:21:59.574Z,97277.91
2022-12-31T20:24:27.870Z,97287.53
2022-12-31T20:26:56.453Z,97285.03
2022-12-31T20:29:25.094Z,97293.16
2022-12-31T20:31:53.834Z,97283.06
2022-12-31T20:34:23.909Z,97286.44
2022-12-31T20:36:52.639Z,97288.88
2022-12-31T20:39:21.302Z,97286.84
2022-12-31T20:41:49.844Z,97289.22
2022-12-31T20:44:18.471Z,97293.31
2022-12-31T20:46:47.246Z,97287.00
2022-12-31T20:49:15.979Z,97296.09
2022-12-31T20:51:51.849Z,97284.16
2022-12-31T20:54:20.836Z,97296.59
2022-12-31T20:56:49.531Z,97290.84
2022-12-31T20:59:18.229Z,97292.72
2022-12-31T21:02:19.925Z,97295.78
2022-12-31T21:04:35.603Z,97293.00
2022-12-31T21:07:05.364Z,97295.94
2022-12-31T21:09:34.126Z,97293.66
2022-12-31T21:12:20.103Z,97289.44
2022-12-31T21:14:48.706Z,97292.53
2022-12-31T21:17:17.324Z,97288.94
2022-12-31T21:19:45.935Z,97279.94
2022-12-31T21:22:15.721Z,97285.94
2022-12-31T21:24:44.381Z,97279.81
2022-12-31T21:27:13.169Z,97286.44
2022-12-31T21:30:01.999Z,97291.19
2022-12-31T21:32:29.974Z,97279.16
2022-12-31T21:35:31.424Z,97278.59
2022-12-31T21:37:58.923Z,97277.75
2022-12-31T21:40:29.324Z,97269.53
2022-12-31T21:42:57.760Z,97273.44
2022-12-31T21:45:26.564Z,97273.63
2022-12-31T21:48:12.637Z,97281.50
2022-12-31T21:50:40.863Z,97273.63
2022-12-31T21:53:10.999Z,97269.81
2022-12-31T21:55:57.132Z,97275.56
2022-12-31T21:58:27.412Z,97281.50
2022-12-31T22:01:14.157Z,97278.56
2022-12-31T22:03:43.103Z,97272.31
2022-12-31T22:06:16.237Z,97273.72
2022-12-31T22:08:49.196Z,97279.03
2022-12-31T22:11:19.000Z,97277.19
2022-12-31T22:13:47.904Z,97285.34
2022-12-31T22:16:17.230Z,97280.53
2022-12-31T22:18:45.987Z,97288.47
2022-12-31T22:21:19.190Z,97279.56
2022-12-31T22:23:52.148Z,97286.41
2022-12-31T22:26:23.733Z,97292.63
2022-12-31T22:28:52.662Z,97299.59
2022-12-31T22:31:24.526Z,97299.88
2022-12-31T22:33:53.880Z,97293.16
2022-12-31T22:36:24.074Z,97284.94
2022-12-31T22:38:58.751Z,97294.88
2022-12-31T22:41:28.449Z,97298.03
2022-12-31T22:44:03.935Z,97305.44
2022-12-31T22:46:33.868Z,97309.59
2022-12-31T22:49:05.206Z,97302.09
2022-12-31T22:51:55.663Z,97300.03
2022-12-31T22:54:23.983Z,97307.66
2022-12-31T22:56:52.776Z,97315.03
2022-12-31T22:59:21.496Z,97304.22
2022-12-31T23:01:50.211Z,97308.03
2022-12-31T23:04:18.983Z,97313.72
2022-12-31T23:06:47.625Z,97301.66
2022-12-31T23:09:35.604Z,97301.00
2022-12-31T23:12:07.802Z,97302.38
2022-12-31T23:14:54.366Z,97297.88
2022-12-31T23:17:45.638Z,97306.81
2022-12-31T23:20:34.210Z,97304.81
2022-12-31T23:23:09.967Z,97311.88
2022-12-31T23:25:41.067Z,97315.16
2022-12-31T23:28:13.612Z,97310.03
2022-12-31T23:30:43.673Z,97322.81
2022-12-31T23:33:20.958Z,97330.13
2022-12-31T23:35:49.968Z,97324.03
2022-12-31T23:38:19.757Z,97322.22
2022-12-31T23:40:48.384Z,97321.19
2022-12-31T23:43:23.112Z,97325.00
2022-12-31T23:45:52.163Z,97325.06
2022-12-31T23:48:20.765Z,97330.00
2022-12-31T23:50:53.859Z,97334.38
2022-12-31T23:53:23.361Z,97332.22
2022-12-31T23:55:52.078Z,97333.28
2022-12-31T23:58:22.664Z,97332.19
